Niznij Tagil, Russia
Current Conditions -  °F | °C
As of 10:30 PM on Thursday 30 Oct 2014 (Local Time) from USSS Reporting Station
Clear Clear  
Wind Chill: 27°   Ceiling: Unl
Heat Index: 36°   Visibility: 6mi
Dew Point: 34°   Wind: 13mph
Humidity: 93%   Direction: 260°W
Pressure: 30.09"   Gusts: NA
Location:  57.3°N, 60°E
Report Text: USSS 301730Z 26006MPS CAVOK 02/01 Q1019 7625//37 NOSIG RMKQFE743
Loading
Personal Weather Stations






























Interactive Weather Map
Tropical Storm Tracking
New forecast layout! Learn more

10-Day Weather Forecast

Advertisements
Track Severe Weather on mobile